Little Lake, Michigan
Current Conditions -  °F | °C
As of 9:45 AM on Friday 31 Oct 2014 (Local Time) from KSAW Reporting Station
Light Snow Light Snow  
Wind Chill: 13°   Ceiling: 2200
Heat Index: 28°   Visibility: 2mi
Dew Point: 25°   Wind: 29mph
Humidity: 86%   Direction: 20°NNE
Pressure: 30.28"   Gusts: 35mph
Location:  46.29°N, 87.34°W
Report Text: KSAW 311345Z 02025G30KT 2SM -SN BKN022 OVC030 M02/M04 A3028
Loading
Personal Weather Stations






























Interactive Weather Map
Tropical Storm Tracking
New forecast layout! Learn more

10-Day Weather Forecast

Advertisements
Track Severe Weather on mobile